Aérodrome :
LOGIN :

S'inscrire | Disclaimer

   EN    FR    IT 

 










Légende :    VFR   VFR Marginal   IFR   IFR Intensif   IFR Très Intensif
Visi : 
Plafond : 
>= 8 km
>= 3000ft
5 à 8 km
1000 à 3000 ft
1500m à 5 km
500 à 1000 ft
800 à 1500m
200 à 500 ft
< 800m
< 200 ft
Symboles :   Orages  Brouillard  Fortes neiges  Fortes précipitations  Vent > 20 kt
SIGMETs :   Divers  Orages  Givrage  Turbulence  Onde Orograph.  Cendres Volcan.







- Altitude de l'aérodrome : 489 ft
- Code IATA : GDN


EPGD - Gdansk

DERNIER METAR :
  • 181100Z 20006KT 5000 BR OVC028 M02/M03 Q1027 R11/190095

METARs EXPIRÉS :
  • 181030Z 20004KT 160V230 6000 OVC031 M02/M03 Q1027 R11/190095
  • 181000Z 21003KT 170V230 6000 OVC031 M02/M03 Q1027 R11/190095
  • 180930Z 21004KT 180V250 5000 BR OVC032 M02/M03 Q1027 R11/190095
  • 180900Z 20003KT 160V240 5000 BR OVC031 M02/M04 Q1027 R11/190095
  • 180830Z 20003KT 170V250 5000 BR OVC031 M02/M04 Q1027 R11/190095

TAF TAF EPGD
Valide du 18 à 12h jusqu'au 19 à 12h UTC


181130Z 1812/1912 18002KT 5000 BR OVC030
BECMG 1813/1815 3000 -SN BR OVC007
TEMPO 1814/1818 1200 -SN BR OVC002
BECMG 1819/1821 1500 BR OVC002
PROB40
TEMPO 1819/1903 0700 -FZDZ FZFG OVC001
PROB40
TEMPO 1903/1906 0500 FG OVC001
BECMG 1907/1909 17012KT 4000 BR BKN005 BKN010
Pas de NOTAMs connus pour ce terrain.



MET'MAP, la Météo Aéronautique d'un coup d'oeil ! - Copyright ORBIFLY Décembre 2007 - Disclaimer

ORBIFLY MET'MAP TEAM :

Programmation & Développement : Alexandra Zaïnal
Conception & Développement : Baudouin d'Aumeries
Co-Programmation & Développement : Marc-Olivier Méhu
Soutien technique & logistique : Manuel Goepfert

Contact : metmap@orbifly.com




SOURCES & CREDITS :

   NOAA